ULLIUMKK

Guest
Details From ULLI - Saint Petersburg Pulkovo
To UMKK - Khrabrovo
Flight Number -
Tags Generated
Created
Modified
Stats Distance 430 nm / 797 km
Max Altitude 0 ft / 0 m
Waypoints 3
Social Downloads 3
Likes 0
Share VATSIM

Download

Looking for another format? Having issues loading an existing format? Contact us
Advertisement - Login to hide

Notes

Generated

Route

ULLI UMKK UMKK

ID Type Via Altitude Latitude Longitude Leg Dist Tot Dist Heading (true) Name
O ULLI APT - 0 ft / 0 m 59.80973˚ 30.24537˚ - 0 nm - -
UMKK FIX - 0 ft / 0 m 54.89000˚ 20.59500˚ 429 nm 429 nm 231° / 223° -
O UMKK APT - 0 ft / 0 m 54.88548˚ 20.57484˚ 0 nm 430 nm 249° / 249° -

Altitude Profile

Advertisement - Login to hide

Weather


0- 5 10 15 20 25 30 35+ Temperature / ° C

Clouds and Precipitation
Forecast for 2018-05-26 00:00 UTC. Updated 6 hours ago

Ground ~20,000 ft ~40,000 ft Winds

ULLI

Details ICAO ULLI (LED)
Name Saint Petersburg Pulkovo
Region Russia
Timezone Europe/Moscow (UTC+3.0)
Stats Elevation 78 ft / 24 m (AMSL)
Location 59.800292° 30.262504°
Runways 2
Magnetic Variation 10.762° E

METAR

ULLI 260500Z 23002MPS 170V290 CAVOK 19/08 Q1031 R88/090060 NOSIG

Decode

TAF

TAF ULLI 260200Z 2603/2703 22003MPS CAVOK TEMPO 2603/2606 15002MPS BECMG 2606/2608 26003G08MPS TEMPO 2609/2616 30003G09MPS

Decode

Departure Runways

ID Width Length Bearing (true) Bearing (mag) Surface Threshold Offset Overrun Length
10L 197 ft / 60 m 11,115 ft / 3,388 m 106.38° 95.62° Concrete 0 ft / 0 m 235 ft / 72 m
10R 197 ft / 60 m 12,365 ft / 3,769 m 106.40° 95.64° Concrete 0 ft / 0 m 220 ft / 67 m
28L 197 ft / 60 m 12,365 ft / 3,769 m 286.46° 275.70° Concrete 0 ft / 0 m 260 ft / 79 m
28R 197 ft / 60 m 11,115 ft / 3,388 m 286.44° 275.68° Concrete 0 ft / 0 m 240 ft / 73 m

UMKK

Details ICAO UMKK (KGD)
Name KHRABROVO
Region Belarus and Russia (Kaliningrad Oblast)
Timezone Europe/Kaliningrad (UTC+2.0)
Stats Elevation 42 ft / 13 m (AMSL)
Location 54.890049° 20.592635°
Runways 1
Magnetic Variation 6.228° E

METAR

UMKK 260500Z VRB01MPS 9999 BKN047CB 16/14 Q1025 R24/29//55 NOSIG RMK QFE767/1023

Decode

TAF

TAF TAF UMKK 260153Z 2603/2703 08005MPS 5000 -SHRA BKN011 BKN020CB TEMPO 2603/2624 3100 -SHRA BR BKN007 BKN012CB BECMG 2609/2611 VRB01MPS PROB40 TEMPO 2612/2621 -TSRA BKN015CB

Decode

Destination Runways

ID Width Length Bearing (true) Bearing (mag) Surface Threshold Offset Overrun Length
06 148 ft / 45 m 8,180 ft / 2,493 m 65.93° 59.70° Concrete 0 ft / 0 m 0 ft / 0 m
24 148 ft / 45 m 8,180 ft / 2,493 m 245.96° 239.73° Concrete 0 ft / 0 m 0 ft / 0 m

Approach Navaids

Runway Type Ident Frequency Range Bearing (true) Bearing (mag) Slope Elevation
24 Localiser IKR 109.50 MHz 18 nm / 33 km 245.00° 238.77° - 42 ft / 13 m (AMSL)
24 Glidescope IKR 109.50 MHz 10 nm / 19 km 245.95° 239.72° 2.70° 42 ft / 13 m (AMSL)

Popular Alternatives